Palawan — ZCMN3 — position and weather

sailwx.info

Track history (hours):
 
Tides and Currents Weather Stations Pressure Air Temp Water Temp Dewpoint Dewpoint Depression Visibility Wind Speed Wind Dir Waves Ship Positions

Palawan

Last reported at 2017-Aug-24 14:00 UTC. Time now 2017-Nov-18 04:33 UTC.
Position N 42°13' W 070°35'.
Warning: this ship's position is months out of date.

Length 23 m.

Type: Pleasure craft. MMSI: 310468000.

Date/timePositionNaut miles runAvg speedWind from/ knotsBaromVisibWave heightAir tempDewpointWater temp
2017-Aug-24 14:00N 42°13' W 070°35'3 5.4
2017-Aug-24 13:30N 42°16' W 070°35'4 7.0
2017-Aug-24 12:58N 42°19' W 070°36'3 7.1
2017-Aug-24 12:30N 42°22' W 070°37'4 7.3
2017-Aug-24 12:00N 42°26' W 070°38'4 7.3
2017-Aug-24 11:30N 42°30' W 070°39'4 7.2
2017-Aug-24 11:01N 42°33' W 070°40'2 4.0
2017-Aug-24 10:29N 42°35' W 070°40'0 0.0
2017-Aug-24 09:59N 42°35' W 070°40'0 0.0
2017-Aug-24 09:29N 42°35' W 070°40'0 0.0
2017-Aug-24 08:59N 42°35' W 070°40'0 0.0
2017-Aug-24 08:29N 42°35' W 070°40'0 0.0
2017-Aug-24 07:59N 42°35' W 070°40'0 0.0
2017-Aug-24 07:26N 42°35' W 070°40'0 0.0
2017-Aug-24 06:59N 42°35' W 070°40'0 0.0
2017-Aug-24 06:29N 42°35' W 070°40'0 0.0
2017-Aug-24 05:56N 42°35' W 070°40'0 0.0
2017-Aug-24 05:29N 42°35' W 070°40'0 0.0
2017-Aug-24 04:44N 42°35' W 070°40'0 0.0
2017-Aug-24 04:29N 42°35' W 070°40'0 0.0
2017-Aug-24 03:59N 42°35' W 070°40'0 0.0
2017-Aug-24 03:23N 42°35' W 070°40'0 0.0
2017-Aug-24 02:59N 42°35' W 070°40'0 0.0
2017-Aug-24 02:29N 42°35' W 070°40'0 0.0
2017-Aug-24 01:59N 42°35' W 070°40'0 0.0
2017-Aug-24 01:29N 42°35' W 070°40'0 0.0
2017-Aug-24 00:59N 42°35' W 070°40'0 0.0
2017-Aug-24 00:29N 42°35' W 070°40'0 0.0
2017-Aug-23 23:59N 42°35' W 070°40'0 0.0
2017-Aug-23 23:29N 42°35' W 070°40'0 0.0
2017-Aug-23 22:59N 42°35' W 070°40'0 0.7
2017-Aug-23 22:30N 42°35' W 070°40'3 6.2
2017-Aug-23 22:00N 42°36' W 070°37'4 7.8
2017-Aug-23 21:30N 42°39' W 070°33'4 8.1
2017-Aug-23 21:00N 42°43' W 070°30'4 8.2
2017-Aug-23 20:30N 42°46' W 070°28'4 8.1
2017-Aug-23 19:57N 42°50' W 070°26'4 7.8
2017-Aug-23 19:29N 42°54' W 070°24'34 7.0
2017-Aug-23 14:35N 43°27' W 070°13'4 6.2
2017-Aug-23 14:00N 43°31' W 070°12'3 5.9
2017-Aug-23 13:30N 43°34' W 070°11'3 5.7
2017-Aug-23 13:00N 43°37' W 070°11'3 5.6
2017-Aug-23 12:30N 43°39' W 070°12'0 0.8
2017-Aug-23 11:56N 43°40' W 070°12'0 0.0
2017-Aug-23 11:29N 43°40' W 070°12'0 0.0
2017-Aug-23 10:59N 43°40' W 070°12'0 0.0
2017-Aug-23 10:26N 43°40' W 070°12'0 0.0
2017-Aug-23 09:59N 43°40' W 070°12'0 0.0
2017-Aug-23 09:26N 43°40' W 070°12'0 0.0
2017-Aug-23 08:56N 43°40' W 070°12'0 0.0
2017-Aug-23 08:29N 43°40' W 070°12'0 0.0
2017-Aug-23 07:56N 43°40' W 070°12'0 0.0
2017-Aug-23 07:26N 43°40' W 070°12'0 0.0
2017-Aug-23 06:59N 43°40' W 070°12'0 0.0
2017-Aug-23 06:29N 43°40' W 070°12'0 0.0
2017-Aug-23 05:56N 43°40' W 070°12'0 0.0
2017-Aug-23 04:02N 43°40' W 070°12'0 0.0
2017-Aug-23 03:53N 43°40' W 070°12'0 0.0
2017-Aug-23 03:26N 43°40' W 070°12'0 0.0
2017-Aug-23 02:59N 43°40' W 070°12'0 0.0
2017-Aug-23 02:29N 43°40' W 070°12'0 0.0
2017-Aug-23 01:59N 43°40' W 070°12'0 0.0
2017-Aug-23 01:29N 43°40' W 070°12'0 0.0
2017-Aug-23 00:59N 43°40' W 070°12'0 0.0
2017-Aug-23 00:29N 43°40' W 070°12'0 0.0
2017-Aug-22 23:59N 43°40' W 070°12'0 0.0
2017-Aug-22 23:30N 43°40' W 070°12'0 0.2
2017-Aug-22 23:00N 43°40' W 070°12'0 0.0
2017-Aug-22 22:30N 43°40' W 070°12'0 0.0
2017-Aug-22 22:00N 43°40' W 070°12'0 0.0
2017-Aug-22 21:30N 43°40' W 070°12'0 0.0
2017-Aug-22 21:00N 43°40' W 070°12'0 0.0
2017-Aug-22 20:30N 43°40' W 070°12'0 0.0
2017-Aug-22 20:00N 43°40' W 070°12'1 2.3
2017-Aug-22 19:30N 43°39' W 070°11'3 6.8
2017-Aug-22 19:00N 43°39' W 070°06'4 7.2
2017-Aug-22 18:30N 43°40' W 070°01'4 8.5
2017-Aug-22 18:00N 43°40' W 069°55'3 6.4
2017-Aug-22 17:30N 43°41' W 069°51'44 1.5
2017-Aug-21 12:37N 44°04' W 068°60'2 6.9
2017-Aug-21 12:22N 44°05' W 068°58'  
Track history (hours):
 
Tides and Currents Weather Stations Pressure Air Temp Water Temp Dewpoint Dewpoint Depression Visibility Wind Speed Wind Dir Waves Ship Positions

Palawan

Last reported at 2017-Aug-24 14:00 UTC. Time now 2017-Nov-18 04:33 UTC.
Position N 42°13' W 070°35'.
Warning: this ship's position is months out of date.

Length 23 m.

Type: Pleasure craft. MMSI: 310468000.

Date/timePositionNaut miles runAvg speedWind from/ knotsBaromVisibWave heightAir tempDewpointWater temp
2017-Aug-24 14:00N 42°13' W 070°35'3 5.4
2017-Aug-24 13:30N 42°16' W 070°35'4 7.0
2017-Aug-24 12:58N 42°19' W 070°36'3 7.1
2017-Aug-24 12:30N 42°22' W 070°37'4 7.3
2017-Aug-24 12:00N 42°26' W 070°38'4 7.3
2017-Aug-24 11:30N 42°30' W 070°39'4 7.2
2017-Aug-24 11:01N 42°33' W 070°40'2 4.0
2017-Aug-24 10:29N 42°35' W 070°40'0 0.0
2017-Aug-24 09:59N 42°35' W 070°40'0 0.0
2017-Aug-24 09:29N 42°35' W 070°40'0 0.0
2017-Aug-24 08:59N 42°35' W 070°40'0 0.0
2017-Aug-24 08:29N 42°35' W 070°40'0 0.0
2017-Aug-24 07:59N 42°35' W 070°40'0 0.0
2017-Aug-24 07:26N 42°35' W 070°40'0 0.0
2017-Aug-24 06:59N 42°35' W 070°40'0 0.0
2017-Aug-24 06:29N 42°35' W 070°40'0 0.0
2017-Aug-24 05:56N 42°35' W 070°40'0 0.0
2017-Aug-24 05:29N 42°35' W 070°40'0 0.0
2017-Aug-24 04:44N 42°35' W 070°40'0 0.0
2017-Aug-24 04:29N 42°35' W 070°40'0 0.0
2017-Aug-24 03:59N 42°35' W 070°40'0 0.0
2017-Aug-24 03:23N 42°35' W 070°40'0 0.0
2017-Aug-24 02:59N 42°35' W 070°40'0 0.0
2017-Aug-24 02:29N 42°35' W 070°40'0 0.0
2017-Aug-24 01:59N 42°35' W 070°40'0 0.0
2017-Aug-24 01:29N 42°35' W 070°40'0 0.0
2017-Aug-24 00:59N 42°35' W 070°40'0 0.0
2017-Aug-24 00:29N 42°35' W 070°40'0 0.0
2017-Aug-23 23:59N 42°35' W 070°40'0 0.0
2017-Aug-23 23:29N 42°35' W 070°40'0 0.0
2017-Aug-23 22:59N 42°35' W 070°40'0 0.7
2017-Aug-23 22:30N 42°35' W 070°40'3 6.2
2017-Aug-23 22:00N 42°36' W 070°37'4 7.8
2017-Aug-23 21:30N 42°39' W 070°33'4 8.1
2017-Aug-23 21:00N 42°43' W 070°30'4 8.2
2017-Aug-23 20:30N 42°46' W 070°28'4 8.1
2017-Aug-23 19:57N 42°50' W 070°26'4 7.8
2017-Aug-23 19:29N 42°54' W 070°24'34 7.0
2017-Aug-23 14:35N 43°27' W 070°13'4 6.2
2017-Aug-23 14:00N 43°31' W 070°12'3 5.9
2017-Aug-23 13:30N 43°34' W 070°11'3 5.7
2017-Aug-23 13:00N 43°37' W 070°11'3 5.6
2017-Aug-23 12:30N 43°39' W 070°12'0 0.8
2017-Aug-23 11:56N 43°40' W 070°12'0 0.0
2017-Aug-23 11:29N 43°40' W 070°12'0 0.0
2017-Aug-23 10:59N 43°40' W 070°12'0 0.0
2017-Aug-23 10:26N 43°40' W 070°12'0 0.0
2017-Aug-23 09:59N 43°40' W 070°12'0 0.0
2017-Aug-23 09:26N 43°40' W 070°12'0 0.0
2017-Aug-23 08:56N 43°40' W 070°12'0 0.0
2017-Aug-23 08:29N 43°40' W 070°12'0 0.0
2017-Aug-23 07:56N 43°40' W 070°12'0 0.0
2017-Aug-23 07:26N 43°40' W 070°12'0 0.0
2017-Aug-23 06:59N 43°40' W 070°12'0 0.0
2017-Aug-23 06:29N 43°40' W 070°12'0 0.0
2017-Aug-23 05:56N 43°40' W 070°12'0 0.0
2017-Aug-23 04:02N 43°40' W 070°12'0 0.0
2017-Aug-23 03:53N 43°40' W 070°12'0 0.0
2017-Aug-23 03:26N 43°40' W 070°12'0 0.0
2017-Aug-23 02:59N 43°40' W 070°12'0 0.0
2017-Aug-23 02:29N 43°40' W 070°12'0 0.0
2017-Aug-23 01:59N 43°40' W 070°12'0 0.0
2017-Aug-23 01:29N 43°40' W 070°12'0 0.0
2017-Aug-23 00:59N 43°40' W 070°12'0 0.0
2017-Aug-23 00:29N 43°40' W 070°12'0 0.0
2017-Aug-22 23:59N 43°40' W 070°12'0 0.0
2017-Aug-22 23:30N 43°40' W 070°12'0 0.2
2017-Aug-22 23:00N 43°40' W 070°12'0 0.0
2017-Aug-22 22:30N 43°40' W 070°12'0 0.0
2017-Aug-22 22:00N 43°40' W 070°12'0 0.0
2017-Aug-22 21:30N 43°40' W 070°12'0 0.0
2017-Aug-22 21:00N 43°40' W 070°12'0 0.0
2017-Aug-22 20:30N 43°40' W 070°12'0 0.0
2017-Aug-22 20:00N 43°40' W 070°12'1 2.3
2017-Aug-22 19:30N 43°39' W 070°11'3 6.8
2017-Aug-22 19:00N 43°39' W 070°06'4 7.2
2017-Aug-22 18:30N 43°40' W 070°01'4 8.5
2017-Aug-22 18:00N 43°40' W 069°55'3 6.4
2017-Aug-22 17:30N 43°41' W 069°51'44 1.5
2017-Aug-21 12:37N 44°04' W 068°60'2 6.9
2017-Aug-21 12:22N 44°05' W 068°58'  

Dump ship's entire track history